createdAt,value
2023-01-23T00:01:35.410Z,17.08
2023-01-23T00:04:04.198Z,15.27
2023-01-23T00:06:31.706Z,16.85
2023-01-23T00:08:59.410Z,14.53
2023-01-23T00:11:30.371Z,14.27
2023-01-23T00:14:00.121Z,14.05
2023-01-23T00:16:31.066Z,14.65
2023-01-23T00:18:59.048Z,13.60
2023-01-23T00:21:29.047Z,15.73
2023-01-23T00:23:59.377Z,15.00
2023-01-23T00:26:35.551Z,15.13
2023-01-23T00:29:04.725Z,16.23
2023-01-23T00:31:39.017Z,14.77
2023-01-23T00:34:11.436Z,14.13
2023-01-23T00:36:42.276Z,13.65
2023-01-23T00:39:22.189Z,13.68
2023-01-23T00:41:50.434Z,13.48
2023-01-23T00:44:18.726Z,15.37
2023-01-23T00:46:46.221Z,14.57
2023-01-23T00:49:14.368Z,17.17
2023-01-23T00:51:41.659Z,15.82
2023-01-23T00:54:09.164Z,17.30
2023-01-23T00:56:36.458Z,14.65
2023-01-23T00:59:04.281Z,14.87
2023-01-23T01:01:32.884Z,12.98
2023-01-23T01:04:01.114Z,13.45
2023-01-23T01:06:30.003Z,13.75
2023-01-23T01:08:59.771Z,13.23
2023-01-23T01:11:27.755Z,13.65
2023-01-23T01:13:55.447Z,14.13
2023-01-23T01:16:24.442Z,15.40
2023-01-23T01:18:52.238Z,17.73
2023-01-23T01:21:19.632Z,17.42
2023-01-23T01:23:47.413Z,16.00
2023-01-23T01:26:14.714Z,14.88
2023-01-23T01:28:42.464Z,16.73
2023-01-23T01:31:15.071Z,16.33
2023-01-23T01:33:44.428Z,14.25
2023-01-23T01:36:19.663Z,15.75
2023-01-23T01:38:48.209Z,16.13
2023-01-23T01:41:16.493Z,15.63
2023-01-23T01:43:44.661Z,17.77
2023-01-23T01:46:23.134Z,15.68
2023-01-23T01:49:04.799Z,14.75
2023-01-23T01:51:53.278Z,16.35
2023-01-23T01:54:42.953Z,17.85
2023-01-23T01:57:39.955Z,18.80
2023-01-23T02:00:19.917Z,19.52
2023-01-23T02:02:55.494Z,18.60
2023-01-23T02:05:46.899Z,19.67
2023-01-23T02:08:26.533Z,18.42
2023-01-23T02:10:54.741Z,17.88
2023-01-23T02:13:38.806Z,16.35
2023-01-23T02:16:20.851Z,16.55
2023-01-23T02:18:53.941Z,15.25
2023-01-23T02:21:25.513Z,14.57
2023-01-23T02:24:13.012Z,15.15
2023-01-23T02:26:44.127Z,15.25
2023-01-23T02:29:13.953Z,16.60
2023-01-23T02:31:43.191Z,15.85
2023-01-23T02:34:13.895Z,14.27
2023-01-23T02:36:47.590Z,14.07
2023-01-23T02:39:18.627Z,13.75
2023-01-23T02:41:50.423Z,14.05
2023-01-23T02:44:26.812Z,13.63
2023-01-23T02:47:05.183Z,13.75
2023-01-23T02:49:32.631Z,13.45
2023-01-23T02:52:00.303Z,13.70
2023-01-23T02:54:27.606Z,13.88
2023-01-23T02:56:57.286Z,14.73
2023-01-23T02:59:42.857Z,13.55
2023-01-23T03:02:10.892Z,12.27
2023-01-23T03:04:38.275Z,12.07
2023-01-23T03:07:05.781Z,14.38
2023-01-23T03:09:33.458Z,14.85
2023-01-23T03:12:01.301Z,12.67
2023-01-23T03:14:30.314Z,14.55
2023-01-23T03:16:58.661Z,14.73
2023-01-23T03:19:27.232Z,17.70
2023-01-23T03:21:54.908Z,18.48
2023-01-23T03:24:22.690Z,19.45
2023-01-23T03:26:51.355Z,19.60
2023-01-23T03:29:44.553Z,20.20
2023-01-23T03:32:15.171Z,19.02
2023-01-23T03:34:43.896Z,18.38
2023-01-23T03:37:12.585Z,19.75
2023-01-23T03:39:58.370Z,19.08
2023-01-23T03:42:25.928Z,20.90
2023-01-23T03:44:53.305Z,22.25
2023-01-23T03:47:20.974Z,19.80
2023-01-23T03:49:48.491Z,20.55
2023-01-23T03:52:16.070Z,19.67
2023-01-23T03:54:43.423Z,21.15
2023-01-23T03:57:11.166Z,20.58
2023-01-23T03:59:38.444Z,19.95
2023-01-23T04:02:06.102Z,19.80
2023-01-23T04:04:34.859Z,21.90
2023-01-23T04:07:03.964Z,20.05
2023-01-23T04:09:31.227Z,21.48
2023-01-23T04:12:00.414Z,20.42
2023-01-23T04:14:37.314Z,19.63
2023-01-23T04:17:07.539Z,21.80
2023-01-23T04:19:35.792Z,21.95
2023-01-23T04:22:05.122Z,25.25
2023-01-23T04:24:32.502Z,23.50
2023-01-23T04:27:00.055Z,22.73
2023-01-23T04:29:27.473Z,21.85
2023-01-23T04:31:55.201Z,18.88
2023-01-23T04:34:22.529Z,19.08
2023-01-23T04:36:50.082Z,21.08
2023-01-23T04:39:17.409Z,21.42
2023-01-23T04:41:45.125Z,20.67
2023-01-23T04:44:21.621Z,20.95
2023-01-23T04:46:53.144Z,19.35
2023-01-23T04:49:22.504Z,19.42
2023-01-23T04:51:50.880Z,18.73
2023-01-23T04:54:20.005Z,20.13
2023-01-23T04:56:49.993Z,19.42
2023-01-23T04:59:17.391Z,19.02
2023-01-23T05:01:45.623Z,20.15
2023-01-23T05:04:13.027Z,21.42
2023-01-23T05:06:40.591Z,21.77
2023-01-23T05:09:07.974Z,20.52
2023-01-23T05:11:35.558Z,21.52
2023-01-23T05:14:03.188Z,22.17
2023-01-23T05:16:30.731Z,21.33
2023-01-23T05:18:58.006Z,21.23
2023-01-23T05:21:25.572Z,23.40
2023-01-23T05:23:52.859Z,23.80
2023-01-23T05:26:20.616Z,21.90
2023-01-23T05:28:47.867Z,22.42
2023-01-23T05:31:15.524Z,23.35
2023-01-23T05:33:42.802Z,20.90
2023-01-23T05:36:10.619Z,21.50
2023-01-23T05:38:37.934Z,22.55
2023-01-23T05:41:05.564Z,22.30
2023-01-23T05:43:32.849Z,21.47
2023-01-23T05:46:02.137Z,22.48
2023-01-23T05:48:29.842Z,20.52
2023-01-23T05:50:57.721Z,19.55
2023-01-23T05:53:24.957Z,20.45
2023-01-23T05:55:52.506Z,20.40
2023-01-23T05:58:19.785Z,19.83
2023-01-23T06:00:47.425Z,20.80
2023-01-23T06:03:14.681Z,21.00
2023-01-23T06:05:42.336Z,19.90
2023-01-23T06:08:09.676Z,21.02
2023-01-23T06:10:38.662Z,19.40
2023-01-23T06:13:06.631Z,21.27
2023-01-23T06:15:34.195Z,20.63
2023-01-23T06:18:01.514Z,19.60
2023-01-23T06:20:29.217Z,17.83
2023-01-23T06:22:57.143Z,21.70
2023-01-23T06:25:24.728Z,21.63
2023-01-23T06:27:54.108Z,24.87
2023-01-23T06:30:22.755Z,28.67
2023-01-23T06:32:50.229Z,30.23
2023-01-23T06:35:18.242Z,27.92
2023-01-23T06:37:45.716Z,28.30
2023-01-23T06:40:14.568Z,26.97
2023-01-23T06:42:43.267Z,26.33
2023-01-23T06:45:12.402Z,24.07
2023-01-23T06:47:39.644Z,25.03
2023-01-23T06:50:08.287Z,23.58
2023-01-23T06:52:35.723Z,23.90
2023-01-23T06:55:03.757Z,24.00
2023-01-23T06:57:31.040Z,20.88
2023-01-23T06:59:59.329Z,22.20
2023-01-23T07:02:26.700Z,23.67
2023-01-23T07:04:54.417Z,22.57
2023-01-23T07:07:21.696Z,26.67
2023-01-23T07:09:49.286Z,28.35
2023-01-23T07:12:16.688Z,27.95
2023-01-23T07:14:44.282Z,25.75
2023-01-23T07:17:11.551Z,23.38
2023-01-23T07:19:39.054Z,22.23
2023-01-23T07:22:06.386Z,21.42
2023-01-23T07:24:34.105Z,21.52
2023-01-23T07:27:01.340Z,21.63
2023-01-23T07:29:28.918Z,24.73
2023-01-23T07:31:58.287Z,24.98
2023-01-23T07:34:25.828Z,24.95
2023-01-23T07:36:53.270Z,23.85
2023-01-23T07:39:20.839Z,22.98
2023-01-23T07:41:48.261Z,23.25
2023-01-23T07:44:20.982Z,22.05
2023-01-23T07:46:49.334Z,24.13
2023-01-23T07:49:17.125Z,25.80
2023-01-23T07:51:44.566Z,23.45
2023-01-23T07:54:12.252Z,23.73
2023-01-23T07:56:39.691Z,22.77
2023-01-23T07:59:07.212Z,23.00
2023-01-23T08:01:34.566Z,22.73
2023-01-23T08:04:02.665Z,21.48
2023-01-23T08:06:30.033Z,24.65
2023-01-23T08:08:57.582Z,22.73
2023-01-23T08:11:26.634Z,21.67
2023-01-23T08:13:54.728Z,22.17
2023-01-23T08:16:22.135Z,21.88
2023-01-23T08:18:49.987Z,23.13
2023-01-23T08:21:17.590Z,22.88
2023-01-23T08:23:46.485Z,21.75
2023-01-23T08:26:17.493Z,22.90
2023-01-23T08:28:46.536Z,22.25
2023-01-23T08:31:14.520Z,22.35
2023-01-23T08:33:42.348Z,23.42
2023-01-23T08:36:13.773Z,24.17
2023-01-23T08:38:41.528Z,24.13
2023-01-23T08:41:11.982Z,24.67
2023-01-23T08:43:43.491Z,23.58
2023-01-23T08:46:11.801Z,22.52
2023-01-23T08:48:39.502Z,24.77
2023-01-23T08:51:11.071Z,23.95
2023-01-23T08:53:39.548Z,25.17
2023-01-23T08:56:19.416Z,23.88
2023-01-23T08:58:47.898Z,25.35
2023-01-23T09:01:25.932Z,24.48
2023-01-23T09:03:53.613Z,26.30
2023-01-23T09:06:23.007Z,25.17
2023-01-23T09:08:50.787Z,25.10
2023-01-23T09:11:18.913Z,26.30
2023-01-23T09:13:47.732Z,26.38
2023-01-23T09:16:15.472Z,26.17
2023-01-23T09:18:43.544Z,23.60
2023-01-23T09:21:15.905Z,23.80
2023-01-23T09:23:43.959Z,22.52
2023-01-23T09:26:15.176Z,23.30
2023-01-23T09:28:43.294Z,24.15
2023-01-23T09:31:14.319Z,23.95
2023-01-23T09:33:42.622Z,24.55
2023-01-23T09:36:10.830Z,22.17
2023-01-23T09:38:38.610Z,22.67
2023-01-23T09:41:23.906Z,21.15
2023-01-23T09:44:07.708Z,21.52
2023-01-23T09:46:52.097Z,20.42
2023-01-23T09:49:43.162Z,22.55
2023-01-23T09:52:23.674Z,21.55
2023-01-23T09:55:02.873Z,22.27
2023-01-23T09:57:54.910Z,23.10
2023-01-23T10:00:33.737Z,22.17
2023-01-23T10:03:11.552Z,24.48
2023-01-23T10:05:55.876Z,22.45
2023-01-23T10:09:14.521Z,21.83
2023-01-23T10:12:14.477Z,20.95
2023-01-23T10:15:05.968Z,22.10
2023-01-23T10:18:00.229Z,23.50
2023-01-23T10:20:33.304Z,22.85
2023-01-23T10:23:24.199Z,24.73
2023-01-23T10:25:52.683Z,22.75
2023-01-23T10:28:39.521Z,25.33
2023-01-23T10:31:52.001Z,21.80
2023-01-23T10:34:38.261Z,23.35
2023-01-23T10:37:51.183Z,24.10
2023-01-23T10:40:41.566Z,23.20
2023-01-23T10:43:17.793Z,25.23
2023-01-23T10:45:49.526Z,25.08
2023-01-23T10:48:33.635Z,25.20
2023-01-23T10:51:01.308Z,24.50
2023-01-23T10:53:28.768Z,28.17
2023-01-23T10:56:00.866Z,24.85
2023-01-23T10:58:38.276Z,27.13
2023-01-23T11:01:26.744Z,25.23
2023-01-23T11:03:54.323Z,24.25
2023-01-23T11:06:26.094Z,23.45
2023-01-23T11:09:01.397Z,21.67
2023-01-23T11:11:32.541Z,21.80
2023-01-23T11:14:16.904Z,23.20
2023-01-23T11:16:44.803Z,21.30
2023-01-23T11:19:22.834Z,21.85
2023-01-23T11:22:04.242Z,21.90
2023-01-23T11:24:41.360Z,21.35
2023-01-23T11:27:15.790Z,21.88
2023-01-23T11:30:09.211Z,24.67
2023-01-23T11:33:06.677Z,26.00
2023-01-23T11:36:18.105Z,39.80
2023-01-23T11:39:06.039Z,26.67
2023-01-23T11:41:36.447Z,29.60
2023-01-23T11:44:18.393Z,25.52
2023-01-23T11:47:14.083Z,28.60
2023-01-23T11:50:06.311Z,28.45
2023-01-23T11:52:56.919Z,27.73
2023-01-23T11:55:58.734Z,29.95
2023-01-23T11:59:00.065Z,27.08
2023-01-23T12:01:49.237Z,27.90
2023-01-23T12:04:28.583Z,26.17
2023-01-23T12:07:11.319Z,27.48
2023-01-23T12:09:44.927Z,21.85
2023-01-23T12:13:12.278Z,24.45
2023-01-23T12:16:00.606Z,23.05
2023-01-23T12:18:43.073Z,22.10
2023-01-23T12:21:34.119Z,22.15
2023-01-23T12:24:32.797Z,24.25
2023-01-23T12:27:29.733Z,24.10
2023-01-23T12:30:37.894Z,22.40
2023-01-23T12:33:30.054Z,20.40
2023-01-23T12:36:48.523Z,21.27
2023-01-23T12:40:01.583Z,19.92
2023-01-23T12:43:09.156Z,18.27
2023-01-23T12:45:46.740Z,18.80
2023-01-23T12:48:29.861Z,19.10
2023-01-23T12:51:08.005Z,20.17
2023-01-23T12:53:42.101Z,21.50
2023-01-23T12:56:27.973Z,18.17
2023-01-23T12:59:47.191Z,18.40
2023-01-23T13:03:14.885Z,19.35
2023-01-23T13:06:00.592Z,20.17
2023-01-23T13:09:05.473Z,19.48
2023-01-23T13:11:42.925Z,19.52
2023-01-23T13:14:22.791Z,19.75
2023-01-23T13:16:53.703Z,20.60
2023-01-23T13:19:45.168Z,20.65
2023-01-23T13:22:27.772Z,21.08
2023-01-23T13:25:15.130Z,21.15
2023-01-23T13:27:58.057Z,21.48
2023-01-23T13:30:26.214Z,22.95
2023-01-23T13:33:30.499Z,26.05
2023-01-23T13:36:12.942Z,28.08
2023-01-23T13:38:42.295Z,23.38
2023-01-23T13:41:14.539Z,25.08
2023-01-23T13:44:05.325Z,23.63
2023-01-23T14:22:48.260Z,28.02
2023-01-23T14:25:19.083Z,26.95
2023-01-23T14:27:53.753Z,23.85
2023-01-23T14:30:30.358Z,23.30
2023-01-23T14:33:01.387Z,22.35
2023-01-23T14:35:35.901Z,22.33
2023-01-23T14:38:08.080Z,23.67
2023-01-23T14:40:49.479Z,23.80
2023-01-23T14:43:29.682Z,24.08
2023-01-23T14:46:22.220Z,22.70
2023-01-23T14:48:56.385Z,21.73
2023-01-23T14:51:27.436Z,21.00
2023-01-23T14:54:02.994Z,21.42
2023-01-23T14:56:39.831Z,19.95
2023-01-23T14:59:37.190Z,21.63
2023-01-23T15:02:33.679Z,23.33
2023-01-23T15:05:18.406Z,23.75
2023-01-23T15:07:56.233Z,23.05
2023-01-23T15:10:34.758Z,22.55
2023-01-23T15:13:10.195Z,24.33
2023-01-23T15:15:38.332Z,23.25
2023-01-23T15:18:22.737Z,21.65
2023-01-23T15:21:03.187Z,25.30
2023-01-23T15:23:58.668Z,24.35
2023-01-23T15:26:39.904Z,22.60
2023-01-23T15:29:10.502Z,25.98
2023-01-23T15:31:40.638Z,24.83
2023-01-23T15:34:16.932Z,26.17
2023-01-23T15:36:52.226Z,30.02
2023-01-23T15:39:24.784Z,28.15
2023-01-23T15:42:02.327Z,27.65
2023-01-23T15:44:33.031Z,27.30
2023-01-23T15:47:01.328Z,28.88
2023-01-23T15:49:30.772Z,27.55
2023-01-23T15:52:02.494Z,28.55
2023-01-23T15:54:36.956Z,29.60
2023-01-23T15:57:08.709Z,33.90
2023-01-23T15:59:37.454Z,31.15
2023-01-23T16:02:12.835Z,28.00
2023-01-23T16:04:46.723Z,31.88
2023-01-23T16:07:31.504Z,29.73
2023-01-23T16:09:59.191Z,30.25
2023-01-23T16:12:30.976Z,30.85
2023-01-23T16:14:58.728Z,27.23
2023-01-23T16:17:26.266Z,30.00
2023-01-23T16:19:54.610Z,29.48
2023-01-23T16:22:29.425Z,30.35
2023-01-23T16:24:58.766Z,29.38
2023-01-23T16:27:27.787Z,31.58
2023-01-23T16:29:56.197Z,31.98
2023-01-23T16:32:23.729Z,34.03
2023-01-23T16:34:51.445Z,31.77
2023-01-23T16:37:19.603Z,29.90
2023-01-23T16:39:47.959Z,29.67
2023-01-23T16:42:22.782Z,32.75
2023-01-23T16:44:51.186Z,30.30
2023-01-23T16:47:18.671Z,33.03
2023-01-23T16:49:52.668Z,31.08
2023-01-23T16:52:24.378Z,31.70
2023-01-23T16:54:54.774Z,35.67
2023-01-23T16:57:22.954Z,33.40
2023-01-23T16:59:52.810Z,34.08
2023-01-23T17:02:31.883Z,32.13
2023-01-23T17:04:59.517Z,29.98
2023-01-23T17:07:26.829Z,31.20
2023-01-23T17:09:54.408Z,30.08
2023-01-23T17:12:29.296Z,28.92
2023-01-23T17:14:58.168Z,32.08
2023-01-23T17:17:36.461Z,28.67
2023-01-23T17:20:05.671Z,29.80
2023-01-23T17:22:40.751Z,28.55
2023-01-23T17:25:20.819Z,27.63
2023-01-23T17:28:06.885Z,26.73
2023-01-23T17:30:37.905Z,26.42
2023-01-23T17:33:05.293Z,28.48
2023-01-23T17:35:37.576Z,27.75
2023-01-23T17:38:05.115Z,25.80
2023-01-23T17:40:32.915Z,27.60
2023-01-23T17:43:00.426Z,24.98
2023-01-23T17:45:28.413Z,26.95
2023-01-23T17:47:56.247Z,24.90
2023-01-23T17:50:26.622Z,25.52
2023-01-23T17:52:54.802Z,24.80
2023-01-23T17:55:28.345Z,25.95
2023-01-23T17:57:55.758Z,26.42
2023-01-23T18:00:23.771Z,27.65
2023-01-23T18:02:59.134Z,25.13
2023-01-23T18:05:27.443Z,26.70
2023-01-23T18:07:54.828Z,26.98
2023-01-23T18:10:25.640Z,26.63
2023-01-23T18:13:10.796Z,25.77
2023-01-23T18:16:02.021Z,27.23
2023-01-23T18:18:39.161Z,28.05
2023-01-23T18:21:14.984Z,32.03
2023-01-23T18:23:42.806Z,29.13
2023-01-23T18:26:31.067Z,29.00
2023-01-23T18:29:13.289Z,30.80
2023-01-23T18:31:52.659Z,31.60
2023-01-23T18:35:01.959Z,32.33
2023-01-23T18:38:11.958Z,29.70
2023-01-23T18:41:12.832Z,32.10
2023-01-23T18:44:01.727Z,28.35
2023-01-23T18:46:30.694Z,29.77
2023-01-23T18:48:58.980Z,28.97
2023-01-23T18:51:54.280Z,29.17
2023-01-23T18:54:57.876Z,27.35
2023-01-23T18:57:46.197Z,30.00
2023-01-23T19:00:47.752Z,27.70
2023-01-23T19:03:18.329Z,30.42
2023-01-23T19:05:46.834Z,30.60
2023-01-23T19:08:32.624Z,28.70
2023-01-23T19:11:30.847Z,25.90
2023-01-23T19:14:08.189Z,28.33
2023-01-23T19:16:47.960Z,28.45
2023-01-23T19:19:56.927Z,30.70
2023-01-23T19:22:26.595Z,26.63
2023-01-23T19:24:54.206Z,27.55
2023-01-23T19:27:23.781Z,25.63
2023-01-23T19:29:51.244Z,28.10
2023-01-23T19:32:19.238Z,28.38
2023-01-23T19:34:46.536Z,26.23
2023-01-23T19:37:14.845Z,25.02
2023-01-23T19:39:42.389Z,25.50
2023-01-23T19:42:14.921Z,26.67
2023-01-23T19:44:42.219Z,28.83
2023-01-23T19:47:10.203Z,26.20
2023-01-23T19:49:37.506Z,27.35
2023-01-23T19:52:05.263Z,28.42
2023-01-23T19:54:32.577Z,27.45
2023-01-23T19:57:00.222Z,29.45
2023-01-23T19:59:27.788Z,33.78
2023-01-23T20:01:55.721Z,38.75
2023-01-23T20:04:24.246Z,43.83
2023-01-23T20:06:52.531Z,40.28
2023-01-23T20:09:20.858Z,38.92
2023-01-23T20:11:49.318Z,34.55
2023-01-23T20:14:16.821Z,32.63
2023-01-23T20:16:44.692Z,30.33
2023-01-23T20:19:15.047Z,29.73
2023-01-23T20:21:43.449Z,29.30
2023-01-23T20:24:11.225Z,29.88
2023-01-23T20:26:40.001Z,31.00
2023-01-23T20:29:08.759Z,30.98
2023-01-23T20:31:36.602Z,29.85
2023-01-23T20:34:04.079Z,32.10
2023-01-23T20:36:31.669Z,35.45
2023-01-23T20:38:58.991Z,34.78
2023-01-23T20:41:26.759Z,34.90
2023-01-23T20:43:54.110Z,32.95
2023-01-23T20:46:21.870Z,30.40
2023-01-23T20:48:49.314Z,29.27
2023-01-23T20:51:17.878Z,29.70
2023-01-23T20:53:45.863Z,29.50
2023-01-23T20:56:17.042Z,30.35
2023-01-23T20:59:07.306Z,34.80
2023-01-23T21:01:57.959Z,34.42
2023-01-23T21:04:30.177Z,36.95
2023-01-23T21:06:58.624Z,34.47
2023-01-23T21:09:27.054Z,36.97
2023-01-23T21:11:55.646Z,36.05
2023-01-23T21:14:24.354Z,35.55
2023-01-23T21:16:52.013Z,34.90
2023-01-23T21:19:19.627Z,32.28
2023-01-23T21:21:47.924Z,33.25
2023-01-23T21:24:15.665Z,32.53
2023-01-23T21:26:43.896Z,33.17
2023-01-23T21:29:11.352Z,33.13
2023-01-23T21:31:39.696Z,31.17
2023-01-23T21:34:11.441Z,32.05
2023-01-23T21:36:42.016Z,31.35
2023-01-23T21:39:13.983Z,32.13
2023-01-23T21:41:41.966Z,32.00
2023-01-23T21:44:11.236Z,29.00
2023-01-23T21:46:38.974Z,29.38
2023-01-23T21:49:06.409Z,29.55
2023-01-23T21:51:34.035Z,30.90
2023-01-23T21:54:01.378Z,30.90
2023-01-23T21:56:29.039Z,29.37
2023-01-23T21:58:56.419Z,33.22
2023-01-23T22:01:46.742Z,31.80
2023-01-23T22:04:19.565Z,29.17
2023-01-23T22:06:47.242Z,30.88
2023-01-23T22:09:18.072Z,30.00
2023-01-23T22:11:48.448Z,30.95
2023-01-23T22:14:18.394Z,31.80
2023-01-23T22:16:49.164Z,29.30
2023-01-23T22:19:24.642Z,32.17
2023-01-23T22:21:55.150Z,31.52
2023-01-23T22:24:22.723Z,31.75
2023-01-23T22:26:50.505Z,31.85
2023-01-23T22:29:18.268Z,32.70
2023-01-23T22:31:46.028Z,32.63
2023-01-23T22:34:13.747Z,31.50
2023-01-23T22:36:41.404Z,32.35
2023-01-23T22:39:08.769Z,30.05
2023-01-23T22:41:36.363Z,30.10
2023-01-23T22:44:03.667Z,30.48
2023-01-23T22:46:32.623Z,30.33
2023-01-23T22:49:00.064Z,31.33
2023-01-23T22:51:28.940Z,31.20
2023-01-23T22:53:58.377Z,33.15
2023-01-23T22:56:28.018Z,32.95
2023-01-23T22:58:57.110Z,33.25
2023-01-23T23:01:27.326Z,32.95
2023-01-23T23:03:59.357Z,32.80
2023-01-23T23:06:28.202Z,33.45
2023-01-23T23:08:55.897Z,35.00
2023-01-23T23:11:28.467Z,35.13
2023-01-23T23:13:58.255Z,32.30
2023-01-23T23:16:31.105Z,31.23
2023-01-23T23:19:02.266Z,35.40
2023-01-23T23:21:36.203Z,32.90
2023-01-23T23:24:07.154Z,32.33
2023-01-23T23:26:35.175Z,34.47
2023-01-23T23:29:03.106Z,32.47
2023-01-23T23:31:31.739Z,31.00
2023-01-23T23:33:59.110Z,30.70
2023-01-23T23:36:27.216Z,30.33
2023-01-23T23:38:54.713Z,28.38
2023-01-23T23:41:22.298Z,30.15
2023-01-23T23:43:49.621Z,30.98
2023-01-23T23:46:17.772Z,29.17
2023-01-23T23:48:46.326Z,28.75
2023-01-23T23:51:18.793Z,30.05
2023-01-23T23:53:47.060Z,29.15
2023-01-23T23:56:26.493Z,29.47
2023-01-23T23:58:55.662Z,27.98
